BAW9PL EGKK-EHAM
Flight info
| Callsign | BAW9PL |
|---|---|
| Flight time | 0h 46m |
| Altitude | 29000 |
| Route | FRANE1M FRANE M604 GASBA M197 REDFA REDFA1A |
| Aircraft | A20M/M-V/N |
Departure
| Time | 2026-04-18 09:32 |
|---|---|
| Airport | London Gatwick Airport (EGKK) |
Arrival
| Time | 2026-04-18 10:18 |
|---|---|
| Airport | Amsterdam Airport Schiphol (EHAM) |
| Time | Latitude | Longitude | Altitude | Speed | Heading |
|---|---|---|---|---|---|
| 2026-04-18 09:15 | 51.15505 | -0.16846 | 213 ft | 0 kts | 348° |
| 2026-04-18 09:25 | 51.15501 | -0.16845 | 208 ft | 1 kts | 348° |
| 2026-04-18 09:25 | 51.15490 | -0.16841 | 206 ft | 2 kts | 348° |
| 2026-04-18 09:25 | 51.15472 | -0.16835 | 207 ft | 3 kts | 341° |
| 2026-04-18 09:26 | 51.15456 | -0.16822 | 217 ft | 3 kts | 294° |
| 2026-04-18 09:26 | 51.15453 | -0.16806 | 211 ft | 0 kts | 238° |
| 2026-04-18 09:26 | 51.15457 | -0.16796 | 209 ft | 0 kts | 253° |
| 2026-04-18 09:28 | 51.15457 | -0.16797 | 209 ft | 1 kts | 253° |
| 2026-04-18 09:28 | 51.15448 | -0.16849 | 208 ft | 8 kts | 256° |
| 2026-04-18 09:28 | 51.15429 | -0.16969 | 211 ft | 14 kts | 258° |
| 2026-04-18 09:29 | 51.15402 | -0.17146 | 213 ft | 19 kts | 243° |
| 2026-04-18 09:29 | 51.15366 | -0.17247 | 217 ft | 2 kts | 183° |
| 2026-04-18 09:29 | 51.15325 | -0.17236 | 211 ft | 10 kts | 168° |
| 2026-04-18 09:29 | 51.15257 | -0.17171 | 205 ft | 10 kts | 108° |
| 2026-04-18 09:30 | 51.15270 | -0.17068 | 207 ft | 13 kts | 77° |
| 2026-04-18 09:30 | 51.15293 | -0.16896 | 210 ft | 17 kts | 78° |
| 2026-04-18 09:30 | 51.15272 | -0.16825 | 208 ft | 4 kts | 170° |
| 2026-04-18 09:30 | 51.15218 | -0.16809 | 212 ft | 11 kts | 169° |
| 2026-04-18 09:31 | 51.15128 | -0.16825 | 214 ft | 16 kts | 230° |
| 2026-04-18 09:31 | 51.15093 | -0.17011 | 211 ft | 24 kts | 257° |
| 2026-04-18 09:31 | 51.14988 | -0.17783 | 211 ft | 115 kts | 257° |
| 2026-04-18 09:31 | 51.14775 | -0.19274 | 363 ft | 133 kts | 258° |
| 2026-04-18 09:32 | 51.14571 | -0.20541 | 494 ft | 107 kts | 257° |
| 2026-04-18 09:32 | 51.14371 | -0.21645 | 324 ft | 110 kts | 257° |
| 2026-04-18 09:32 | 51.14099 | -0.23055 | 1091 ft | 148 kts | 255° |
| 2026-04-18 09:32 | 51.13691 | -0.24821 | 2030 ft | 189 kts | 253° |
| 2026-04-18 09:33 | 51.13275 | -0.26991 | 3029 ft | 224 kts | 261° |
| 2026-04-18 09:33 | 51.13204 | -0.28724 | 3665 ft | 252 kts | 277° |
| 2026-04-18 09:33 | 51.14213 | -0.32269 | 4761 ft | 283 kts | 310° |
| 2026-04-18 09:33 | 51.15729 | -0.34010 | 5187 ft | 257 kts | 336° |
| 2026-04-18 09:34 | 51.17395 | -0.34271 | 5665 ft | 236 kts | 7° |
| 2026-04-18 09:34 | 51.19013 | -0.33107 | 6206 ft | 276 kts | 36° |
| 2026-04-18 09:34 | 51.20249 | -0.30680 | 6736 ft | 288 kts | 63° |
| 2026-04-18 09:34 | 51.20637 | -0.28729 | 7082 ft | 292 kts | 81° |
| 2026-04-18 09:35 | 51.20782 | -0.25357 | 7704 ft | 296 kts | 90° |
| 2026-04-18 09:35 | 51.20819 | -0.22092 | 8306 ft | 299 kts | 89° |
| 2026-04-18 09:35 | 51.20941 | -0.18746 | 8933 ft | 304 kts | 86° |
| 2026-04-18 09:35 | 51.21161 | -0.15365 | 9565 ft | 309 kts | 84° |
| 2026-04-18 09:36 | 51.21503 | -0.11961 | 10204 ft | 312 kts | 80° |
| 2026-04-18 09:36 | 51.21951 | -0.08453 | 10807 ft | 338 kts | 79° |
| 2026-04-18 09:36 | 51.22460 | -0.04627 | 11422 ft | 365 kts | 79° |
| 2026-04-18 09:36 | 51.22999 | -0.00521 | 12040 ft | 391 kts | 79° |
| 2026-04-18 09:37 | 51.23559 | 0.03856 | 12545 ft | 414 kts | 79° |
| 2026-04-18 09:37 | 51.24138 | 0.08452 | 13153 ft | 427 kts | 80° |
| 2026-04-18 09:37 | 51.24723 | 0.13138 | 13778 ft | 434 kts | 80° |
| 2026-04-18 09:37 | 51.25174 | 0.17855 | 14323 ft | 437 kts | 87° |
| 2026-04-18 09:38 | 51.25217 | 0.22704 | 14885 ft | 438 kts | 96° |
| 2026-04-18 09:38 | 51.24870 | 0.27546 | 15452 ft | 441 kts | 101° |
| 2026-04-18 09:38 | 51.24452 | 0.32423 | 16037 ft | 445 kts | 101° |
| 2026-04-18 09:38 | 51.24036 | 0.37345 | 16658 ft | 450 kts | 100° |
| 2026-04-18 09:39 | 51.23618 | 0.42310 | 17294 ft | 454 kts | 100° |
| 2026-04-18 09:39 | 51.23194 | 0.47329 | 17947 ft | 458 kts | 101° |
| 2026-04-18 09:39 | 51.22765 | 0.52377 | 18542 ft | 461 kts | 100° |
| 2026-04-18 09:39 | 51.22569 | 0.57529 | 19137 ft | 469 kts | 89° |
| 2026-04-18 09:40 | 51.23070 | 0.62696 | 19765 ft | 475 kts | 76° |
| 2026-04-18 09:40 | 51.24265 | 0.67651 | 20412 ft | 480 kts | 62° |
| 2026-04-18 09:40 | 51.26091 | 0.72126 | 21059 ft | 483 kts | 49° |
| 2026-04-18 09:40 | 51.28461 | 0.75922 | 21731 ft | 484 kts | 36° |
| 2026-04-18 09:41 | 51.31261 | 0.78875 | 22410 ft | 482 kts | 23° |
| 2026-04-18 09:41 | 51.34326 | 0.80848 | 23189 ft | 480 kts | 11° |
| 2026-04-18 09:41 | 51.37610 | 0.81814 | 23853 ft | 478 kts | 359° |
| 2026-04-18 09:41 | 51.40910 | 0.81701 | 24424 ft | 471 kts | 346° |
| 2026-04-18 09:42 | 51.44080 | 0.80530 | 24999 ft | 464 kts | 334° |
| 2026-04-18 09:42 | 51.46998 | 0.78402 | 25593 ft | 459 kts | 324° |
| 2026-04-18 09:42 | 51.49761 | 0.75832 | 26194 ft | 459 kts | 322° |
| 2026-04-18 09:42 | 51.52546 | 0.73273 | 26808 ft | 466 kts | 328° |
| 2026-04-18 09:43 | 51.55624 | 0.71479 | 27442 ft | 477 kts | 339° |
| 2026-04-18 09:43 | 51.58943 | 0.70684 | 28111 ft | 487 kts | 351° |
| 2026-04-18 09:43 | 51.62355 | 0.70951 | 28766 ft | 497 kts | 2° |
| 2026-04-18 09:43 | 51.65782 | 0.72165 | 28955 ft | 510 kts | 10° |
| 2026-04-18 09:44 | 51.69188 | 0.73805 | 29207 ft | 512 kts | 11° |
| 2026-04-18 09:44 | 51.72557 | 0.75412 | 29215 ft | 510 kts | 10° |
| 2026-04-18 09:44 | 51.79376 | 0.78629 | 29221 ft | 515 kts | 17° |
| 2026-04-18 09:45 | 51.82576 | 0.81335 | 29231 ft | 525 kts | 29° |
| 2026-04-18 09:45 | 51.85467 | 0.85014 | 29219 ft | 531 kts | 41° |
| 2026-04-18 09:45 | 51.87910 | 0.89516 | 29222 ft | 535 kts | 52° |
| 2026-04-18 09:45 | 51.89820 | 0.94709 | 29221 ft | 537 kts | 64° |
| 2026-04-18 09:46 | 51.91111 | 1.00361 | 29207 ft | 534 kts | 76° |
| 2026-04-18 09:46 | 51.91742 | 1.06262 | 29220 ft | 531 kts | 88° |
| 2026-04-18 09:46 | 51.91598 | 1.18100 | 29218 ft | 530 kts | 92° |
| 2026-04-18 09:47 | 51.92517 | 1.29965 | 29222 ft | 534 kts | 79° |
| 2026-04-18 09:47 | 51.94406 | 1.41608 | 29219 ft | 534 kts | 75° |
| 2026-04-18 09:48 | 51.96481 | 1.53175 | 29218 ft | 533 kts | 75° |
| 2026-04-18 09:48 | 51.98532 | 1.64725 | 29228 ft | 533 kts | 75° |
| 2026-04-18 09:49 | 52.00476 | 1.76323 | 29220 ft | 532 kts | 77° |
| 2026-04-18 09:49 | 52.02252 | 1.88000 | 29231 ft | 532 kts | 77° |
| 2026-04-18 09:50 | 52.04019 | 1.99593 | 29223 ft | 531 kts | 77° |
| 2026-04-18 09:50 | 52.05802 | 2.11249 | 29219 ft | 531 kts | 77° |
| 2026-04-18 09:51 | 52.07577 | 2.22920 | 29229 ft | 531 kts | 77° |
| 2026-04-18 09:51 | 52.09338 | 2.34587 | 29224 ft | 531 kts | 77° |
| 2026-04-18 09:52 | 52.11221 | 2.46225 | 29200 ft | 532 kts | 71° |
| 2026-04-18 09:52 | 52.14464 | 2.57045 | 29222 ft | 533 kts | 59° |
| 2026-04-18 09:53 | 52.18237 | 2.67436 | 29221 ft | 533 kts | 59° |
| 2026-04-18 09:53 | 52.21997 | 2.77873 | 29221 ft | 533 kts | 59° |
| 2026-04-18 09:54 | 52.25717 | 2.88241 | 29242 ft | 531 kts | 59° |
| 2026-04-18 09:54 | 52.29443 | 2.98662 | 29199 ft | 533 kts | 60° |
| 2026-04-18 09:55 | 52.33177 | 3.09152 | 29214 ft | 533 kts | 60° |
| 2026-04-18 09:55 | 52.36897 | 3.19645 | 29048 ft | 533 kts | 60° |
| 2026-04-18 09:56 | 52.40608 | 3.30155 | 28735 ft | 531 kts | 60° |
| 2026-04-18 09:56 | 52.42441 | 3.35363 | 28354 ft | 521 kts | 60° |
| 2026-04-18 09:56 | 52.44052 | 3.40547 | 27972 ft | 501 kts | 67° |
| 2026-04-18 09:57 | 52.45248 | 3.45792 | 27595 ft | 483 kts | 74° |
| 2026-04-18 09:57 | 52.46076 | 3.51033 | 27162 ft | 468 kts | 79° |
| 2026-04-18 09:57 | 52.46813 | 3.56215 | 26647 ft | 470 kts | 79° |
| 2026-04-18 09:57 | 52.47567 | 3.61452 | 26152 ft | 470 kts | 79° |
| 2026-04-18 09:58 | 52.48301 | 3.66550 | 25660 ft | 461 kts | 79° |
| 2026-04-18 09:58 | 52.49030 | 3.71649 | 25168 ft | 457 kts | 79° |
| 2026-04-18 09:58 | 52.49748 | 3.76707 | 24685 ft | 454 kts | 79° |
| 2026-04-18 09:58 | 52.50459 | 3.81741 | 24208 ft | 451 kts | 79° |
| 2026-04-18 09:59 | 52.51161 | 3.86735 | 23732 ft | 447 kts | 79° |
| 2026-04-18 09:59 | 52.51827 | 3.91703 | 23168 ft | 442 kts | 83° |
| 2026-04-18 09:59 | 52.51961 | 3.96676 | 22609 ft | 432 kts | 98° |
| 2026-04-18 10:00 | 52.50340 | 4.05866 | 21355 ft | 414 kts | 117° |
| 2026-04-18 10:00 | 52.49268 | 4.10221 | 20764 ft | 409 kts | 116° |
| 2026-04-18 10:00 | 52.48208 | 4.14536 | 20188 ft | 406 kts | 116° |
| 2026-04-18 10:00 | 52.47159 | 4.18812 | 19613 ft | 402 kts | 116° |
| 2026-04-18 10:01 | 52.46119 | 4.23041 | 19058 ft | 398 kts | 116° |
| 2026-04-18 10:01 | 52.45088 | 4.27229 | 18510 ft | 394 kts | 116° |
| 2026-04-18 10:01 | 52.44065 | 4.31378 | 17871 ft | 391 kts | 116° |
| 2026-04-18 10:01 | 52.43048 | 4.35498 | 17254 ft | 388 kts | 116° |
| 2026-04-18 10:02 | 52.42040 | 4.39579 | 16645 ft | 384 kts | 116° |
| 2026-04-18 10:02 | 52.41041 | 4.43614 | 16054 ft | 381 kts | 116° |
| 2026-04-18 10:02 | 52.40062 | 4.47559 | 15481 ft | 377 kts | 116° |
| 2026-04-18 10:02 | 52.39086 | 4.51533 | 14914 ft | 375 kts | 113° |
| 2026-04-18 10:03 | 52.38618 | 4.55728 | 14351 ft | 378 kts | 92° |
| 2026-04-18 10:03 | 52.38803 | 4.60022 | 13775 ft | 377 kts | 86° |
| 2026-04-18 10:03 | 52.39054 | 4.64241 | 13146 ft | 366 kts | 86° |
| 2026-04-18 10:03 | 52.39295 | 4.68165 | 12564 ft | 352 kts | 86° |
| 2026-04-18 10:04 | 52.39539 | 4.72202 | 11979 ft | 339 kts | 86° |
| 2026-04-18 10:04 | 52.39761 | 4.75985 | 11397 ft | 328 kts | 86° |
| 2026-04-18 10:04 | 52.39972 | 4.79661 | 10827 ft | 320 kts | 87° |
| 2026-04-18 10:04 | 52.40120 | 4.83246 | 10262 ft | 310 kts | 96° |
| 2026-04-18 10:05 | 52.39641 | 4.86586 | 9666 ft | 297 kts | 120° |
| 2026-04-18 10:05 | 52.38437 | 4.89255 | 9061 ft | 288 kts | 141° |
| 2026-04-18 10:05 | 52.36878 | 4.91196 | 8469 ft | 276 kts | 155° |
| 2026-04-18 10:05 | 52.35357 | 4.93106 | 7884 ft | 278 kts | 137° |
| 2026-04-18 10:06 | 52.34104 | 4.95456 | 7538 ft | 265 kts | 135° |
| 2026-04-18 10:06 | 52.32936 | 4.97720 | 7162 ft | 259 kts | 128° |
| 2026-04-18 10:06 | 52.32131 | 5.00336 | 6725 ft | 257 kts | 117° |
| 2026-04-18 10:06 | 52.31415 | 5.02960 | 6271 ft | 254 kts | 117° |
| 2026-04-18 10:07 | 52.30687 | 5.05630 | 5866 ft | 264 kts | 117° |
| 2026-04-18 10:07 | 52.29942 | 5.08367 | 5830 ft | 264 kts | 117° |
| 2026-04-18 10:07 | 52.29191 | 5.11100 | 5771 ft | 262 kts | 122° |
| 2026-04-18 10:07 | 52.28033 | 5.13298 | 5684 ft | 253 kts | 148° |
| 2026-04-18 10:08 | 52.26699 | 5.15188 | 5598 ft | 256 kts | 139° |
| 2026-04-18 10:08 | 52.25482 | 5.17316 | 5544 ft | 257 kts | 137° |
| 2026-04-18 10:08 | 52.24458 | 5.19709 | 5464 ft | 263 kts | 115° |
| 2026-04-18 10:08 | 52.24154 | 5.22677 | 5392 ft | 268 kts | 94° |
| 2026-04-18 10:09 | 52.24101 | 5.25726 | 5363 ft | 267 kts | 93° |
| 2026-04-18 10:09 | 52.24053 | 5.28757 | 5287 ft | 268 kts | 89° |
| 2026-04-18 10:09 | 52.24550 | 5.31674 | 5185 ft | 270 kts | 59° |
| 2026-04-18 10:09 | 52.25811 | 5.33864 | 5112 ft | 264 kts | 28° |
| 2026-04-18 10:10 | 52.27481 | 5.34798 | 5012 ft | 254 kts | 359° |
| 2026-04-18 10:10 | 52.29182 | 5.34364 | 4923 ft | 244 kts | 332° |
| 2026-04-18 10:10 | 52.30481 | 5.32744 | 4912 ft | 233 kts | 304° |
| 2026-04-18 10:10 | 52.31468 | 5.30644 | 4807 ft | 233 kts | 302° |
| 2026-04-18 10:11 | 52.32441 | 5.28538 | 4498 ft | 229 kts | 302° |
| 2026-04-18 10:11 | 52.33396 | 5.26460 | 4287 ft | 229 kts | 302° |
| 2026-04-18 10:11 | 52.34365 | 5.24383 | 4086 ft | 229 kts | 302° |
| 2026-04-18 10:11 | 52.35435 | 5.22455 | 3871 ft | 234 kts | 320° |
| 2026-04-18 10:12 | 52.36870 | 5.21167 | 3662 ft | 234 kts | 319° |
| 2026-04-18 10:12 | 52.37859 | 5.19202 | 3406 ft | 218 kts | 288° |
| 2026-04-18 10:12 | 52.38014 | 5.16837 | 3047 ft | 207 kts | 258° |
| 2026-04-18 10:12 | 52.37667 | 5.14562 | 2695 ft | 205 kts | 249° |
| 2026-04-18 10:13 | 52.37037 | 5.12472 | 2360 ft | 205 kts | 242° |
| 2026-04-18 10:13 | 52.36533 | 5.10372 | 2144 ft | 196 kts | 255° |
| 2026-04-18 10:13 | 52.36204 | 5.08261 | 2040 ft | 190 kts | 256° |
| 2026-04-18 10:13 | 52.35885 | 5.06160 | 1988 ft | 190 kts | 256° |
| 2026-04-18 10:14 | 52.35554 | 5.04056 | 1987 ft | 193 kts | 251° |
| 2026-04-18 10:14 | 52.34979 | 5.02088 | 1990 ft | 190 kts | 243° |
| 2026-04-18 10:14 | 52.34355 | 5.00208 | 1992 ft | 183 kts | 242° |
| 2026-04-18 10:14 | 52.33800 | 4.98423 | 1984 ft | 168 kts | 254° |
| 2026-04-18 10:15 | 52.33567 | 4.96637 | 1984 ft | 155 kts | 249° |
| 2026-04-18 10:15 | 52.33098 | 4.95085 | 1994 ft | 155 kts | 243° |
| 2026-04-18 10:15 | 52.32593 | 4.93563 | 1890 ft | 147 kts | 243° |
| 2026-04-18 10:15 | 52.32228 | 4.92063 | 1668 ft | 139 kts | 257° |
| 2026-04-18 10:16 | 52.32106 | 4.90540 | 1414 ft | 135 kts | 266° |
| 2026-04-18 10:16 | 52.32096 | 4.89027 | 1181 ft | 130 kts | 270° |
| 2026-04-18 10:16 | 52.32107 | 4.87630 | 1046 ft | 122 kts | 268° |
| 2026-04-18 10:16 | 52.32040 | 4.86230 | 947 ft | 125 kts | 264° |
| 2026-04-18 10:17 | 52.31955 | 4.84838 | 736 ft | 122 kts | 266° |
| 2026-04-18 10:17 | 52.31923 | 4.83417 | 523 ft | 126 kts | 267° |
| 2026-04-18 10:17 | 52.31896 | 4.81989 | 332 ft | 125 kts | 267° |
| 2026-04-18 10:17 | 52.31848 | 4.80601 | 190 ft | 125 kts | 266° |
| 2026-04-18 10:18 | 52.31816 | 4.79176 | 29 ft | 124 kts | 266° |
| 2026-04-18 10:18 | 52.31777 | 4.77934 | 17 ft | 66 kts | 266° |
| 2026-04-18 10:18 | 52.31721 | 4.77661 | 18 ft | 14 kts | 238° |
| 2026-04-18 10:18 | 52.31678 | 4.77557 | 15 ft | 0 kts | 233° |
| 2026-04-18 10:20 | 52.31658 | 4.77511 | 13 ft | 10 kts | 237° |
| 2026-04-18 10:20 | 52.31609 | 4.77382 | 12 ft | 16 kts | 240° |
| 2026-04-18 10:20 | 52.31552 | 4.77219 | 8 ft | 14 kts | 203° |
| 2026-04-18 10:21 | 52.31443 | 4.77235 | 6 ft | 19 kts | 137° |
| 2026-04-18 10:21 | 52.31369 | 4.77374 | 5 ft | 17 kts | 132° |
| 2026-04-18 10:21 | 52.31336 | 4.77434 | 7 ft | 3 kts | 132° |
| 2026-04-18 10:21 | 52.31310 | 4.77474 | 8 ft | 7 kts | 137° |
| 2026-04-18 10:22 | 52.31258 | 4.77512 | 11 ft | 10 kts | 174° |
| 2026-04-18 10:22 | 52.31172 | 4.77499 | 11 ft | 16 kts | 184° |
| 2026-04-18 10:22 | 52.31042 | 4.77488 | 10 ft | 21 kts | 183° |
| 2026-04-18 10:22 | 52.30881 | 4.77473 | 12 ft | 25 kts | 184° |
| 2026-04-18 10:23 | 52.30701 | 4.77456 | 10 ft | 11 kts | 182° |
| 2026-04-18 10:23 | 52.30648 | 4.77403 | 10 ft | 12 kts | 248° |
| 2026-04-18 10:23 | 52.30647 | 4.77225 | 6 ft | 20 kts | 273° |
| 2026-04-18 10:23 | 52.30664 | 4.77047 | 5 ft | 9 kts | 320° |
| 2026-04-18 10:24 | 52.30705 | 4.77026 | 3 ft | 2 kts | 1° |
| 2026-04-18 10:24 | 52.30709 | 4.77026 | 3 ft | 0 kts | 1° |